Time;durP1;ratioP1;P1;durP2;ratioP2;P2;SDS_P1;SDS_P2;PMS_P1;PMS_P2;Temp;Humidity;BMP_temperature;BMP_pressure;BME280_temperature;BME280_humidity;BME280_pressure;Samples;Min_cycle;Max_cycle;Signal;HPM_P1;HPM_P2
2024/01/07 00:01:29;;;;;;;3.17;2.43;;;;;;;1.37;100.00;96682.41;6155860;28;20214;-53
2024/01/07 00:04:34;;;;;;;2.97;2.43;;;;;;;1.36;100.00;96680.00;6156749;28;20194;-56
2024/01/07 00:07:36;;;;;;;4.70;2.80;;;;;;;1.34;100.00;96680.22;6157703;28;20211;-56
2024/01/07 00:10:39;;;;;;;2.53;2.33;;;;;;;1.32;100.00;96670.94;6159106;28;20199;-54
2024/01/07 00:13:41;;;;;;;3.57;2.87;;;;;;;1.31;100.00;96674.56;6152915;28;20758;-55
2024/01/07 00:16:43;;;;;;;3.87;3.10;;;;;;;1.28;100.00;96668.72;6150044;28;20202;-52
2024/01/07 00:19:46;;;;;;;3.70;2.90;;;;;;;1.30;100.00;96689.50;6165527;28;20202;-55
2024/01/07 00:22:48;;;;;;;3.20;2.20;;;;;;;1.30;100.00;96686.88;6160165;28;20686;-56
2024/01/07 00:25:51;;;;;;;3.30;2.80;;;;;;;1.30;100.00;96681.63;6161029;28;20486;-56
2024/01/07 00:28:53;;;;;;;4.50;2.27;;;;;;;1.28;100.00;96688.91;6153231;28;20566;-56
2024/01/07 00:31:56;;;;;;;2.87;2.57;;;;;;;1.18;100.00;96668.38;6151297;28;20196;-55
2024/01/07 00:34:59;;;;;;;3.47;3.10;;;;;;;1.28;100.00;96683.66;6136973;28;20227;-56
2024/01/07 00:38:06;;;;;;;5.87;2.90;;;;;;;1.24;100.00;96683.28;6155179;28;20216;-56
2024/01/07 00:41:08;;;;;;;4.50;3.50;;;;;;;1.22;100.00;96677.41;6153740;28;20196;-54
2024/01/07 00:44:11;;;;;;;4.47;3.13;;;;;;;1.10;100.00;96679.09;6157167;28;20210;-55
2024/01/07 00:47:13;;;;;;;3.70;2.97;;;;;;;1.17;100.00;96685.09;6158763;28;20249;-56
2024/01/07 00:50:19;;;;;;;5.37;3.53;;;;;;;1.10;100.00;96680.91;6175186;28;20199;-57
2024/01/07 00:53:22;;;;;;;5.33;3.13;;;;;;;1.10;100.00;96694.81;6160062;28;20206;-55
2024/01/07 00:56:28;;;;;;;3.47;3.17;;;;;;;1.10;100.00;96701.88;6182507;28;20287;-56
2024/01/07 00:59:30;;;;;;;4.93;3.33;;;;;;;1.15;100.00;96710.75;6185312;28;20276;-54
2024/01/07 01:02:35;;;;;;;4.03;3.10;;;;;;;1.00;100.00;96724.09;6177958;28;20190;-57
2024/01/07 01:05:39;;;;;;;4.37;3.10;;;;;;;1.01;100.00;96714.41;6177879;28;20190;-55
2024/01/07 01:08:41;;;;;;;4.50;3.33;;;;;;;1.01;100.00;96719.66;6180012;28;20351;-52
2024/01/07 01:11:45;;;;;;;4.33;2.87;;;;;;;1.00;100.00;96713.59;6184325;28;20191;-57
2024/01/07 01:14:50;;;;;;;3.33;2.93;;;;;;;0.95;100.00;96713.41;6184131;28;20249;-55
2024/01/07 01:17:55;;;;;;;5.07;3.53;;;;;;;0.95;100.00;96718.66;6181265;28;20259;-56
2024/01/07 01:20:57;;;;;;;4.37;2.83;;;;;;;0.88;100.00;96711.78;6188541;28;20236;-53
2024/01/07 01:24:00;;;;;;;3.60;2.80;;;;;;;0.77;100.00;96721.09;6171034;28;20808;-57
2024/01/07 01:27:02;;;;;;;3.57;2.70;;;;;;;0.71;100.00;96725.34;6178946;28;20195;-56
2024/01/07 01:30:05;;;;;;;4.53;2.73;;;;;;;0.71;100.00;96720.09;6176504;28;20284;-57
2024/01/07 01:33:08;;;;;;;3.50;2.90;;;;;;;0.70;100.00;96723.72;6181796;28;20198;-54
2024/01/07 01:36:31;;;;;;;4.83;3.40;;;;;;;0.65;100.00;96725.34;6180178;28;20188;-56
2024/01/07 01:39:34;;;;;;;3.93;2.93;;;;;;;0.64;100.00;96723.72;6175859;28;20341;-56
2024/01/07 01:42:37;;;;;;;3.23;2.93;;;;;;;0.63;100.00;96714.25;6180139;28;20662;-56
2024/01/07 01:45:40;;;;;;;4.40;3.10;;;;;;;0.62;100.00;96718.69;6173906;28;20276;-56
2024/01/07 01:48:43;;;;;;;3.70;3.07;;;;;;;0.60;100.00;96712.03;6175143;28;20206;-57
2024/01/07 01:51:46;;;;;;;4.03;3.00;;;;;;;0.59;100.00;96706.00;6178100;28;20217;-57
2024/01/07 01:54:49;;;;;;;4.00;2.73;;;;;;;0.60;100.00;96699.75;6181553;28;20271;-56
2024/01/07 01:57:54;;;;;;;3.50;2.60;;;;;;;0.61;100.00;96703.16;6189728;28;20202;-56
2024/01/07 02:00:56;;;;;;;3.93;2.70;;;;;;;0.60;100.00;96705.00;6183689;28;20252;-56
2024/01/07 02:04:00;;;;;;;4.57;2.97;;;;;;;0.60;100.00;96706.81;6180758;28;20685;-54
2024/01/07 02:07:03;;;;;;;4.53;3.20;;;;;;;0.62;100.00;96699.53;6179157;28;20207;-56
2024/01/07 02:10:05;;;;;;;3.47;2.77;;;;;;;0.62;100.00;96694.28;6171596;28;20276;-56
2024/01/07 02:13:08;;;;;;;4.00;3.17;;;;;;;0.62;100.00;96689.84;6163561;28;20193;-56
2024/01/07 02:16:11;;;;;;;4.30;3.33;;;;;;;0.65;100.00;96688.66;6181369;28;20212;-56
2024/01/07 02:19:13;;;;;;;4.07;3.20;;;;;;;0.63;100.00;96693.28;6182278;28;20289;-55
2024/01/07 02:22:18;;;;;;;4.27;3.63;;;;;;;0.66;100.00;96704.16;6181656;28;20492;-57
2024/01/07 02:25:21;;;;;;;4.33;3.60;;;;;;;0.63;100.00;96709.00;6180080;28;20237;-55
2024/01/07 02:28:23;;;;;;;3.40;3.10;;;;;;;0.59;100.00;96703.38;6168292;28;20205;-56
2024/01/07 02:31:25;;;;;;;4.47;3.47;;;;;;;0.69;100.00;96710.81;6181951;28;20202;-55
2024/01/07 02:34:28;;;;;;;3.70;3.30;;;;;;;0.61;100.00;96718.91;6177605;28;20229;-55
2024/01/07 02:37:30;;;;;;;5.00;3.93;;;;;;;0.55;100.00;96719.72;6177487;28;20208;-56
2024/01/07 02:40:33;;;;;;;4.67;3.70;;;;;;;0.57;100.00;96718.47;6177630;28;20198;-54
2024/01/07 02:43:35;;;;;;;5.23;4.23;;;;;;;0.60;100.00;96719.91;6178774;28;20201;-53
2024/01/07 02:46:39;;;;;;;5.50;3.70;;;;;;;0.56;100.00;96727.34;6178582;28;20197;-56
2024/01/07 02:49:41;;;;;;;4.90;3.77;;;;;;;0.47;100.00;96731.97;6162177;28;20560;-57
2024/01/07 02:52:44;;;;;;;4.83;4.30;;;;;;;0.51;100.00;96724.53;6176078;28;20824;-56
2024/01/07 02:55:46;;;;;;;5.97;3.60;;;;;;;0.42;100.00;96726.53;6179624;28;20229;-55
2024/01/07 02:58:49;;;;;;;4.10;3.63;;;;;;;0.44;100.00;96723.72;6182018;28;20201;-56
2024/01/07 03:01:51;;;;;;;5.47;4.00;;;;;;;0.42;100.00;96726.53;6185367;28;20681;-55
2024/01/07 03:04:53;;;;;;;4.70;3.30;;;;;;;0.11;100.00;96668.72;6182561;28;20576;-55
2024/01/07 03:07:56;;;;;;;4.50;3.60;;;;;;;0.42;100.00;96723.13;6181388;28;20340;-57
2024/01/07 03:11:05;;;;;;;5.60;4.23;;;;;;;0.34;100.00;96723.31;6186997;28;20685;-55
2024/01/07 03:14:07;;;;;;;5.50;4.20;;;;;;;0.38;100.00;96732.38;6183921;28;20221;-56
2024/01/07 03:17:10;;;;;;;4.43;3.80;;;;;;;0.31;100.00;96729.75;6177393;28;20205;-56
2024/01/07 03:20:13;;;;;;;4.20;3.57;;;;;;;0.30;100.00;96736.03;6179139;28;20202;-56
2024/01/07 03:23:16;;;;;;;5.20;3.57;;;;;;;0.28;100.00;96735.41;6180563;28;20209;-56
2024/01/07 03:26:19;;;;;;;4.63;3.70;;;;;;;0.32;100.00;96731.38;6180110;28;20213;-56
2024/01/07 03:29:22;;;;;;;5.13;4.03;;;;;;;0.29;100.00;96733.56;6165533;28;20202;-55
2024/01/07 03:32:24;;;;;;;5.20;3.17;;;;;;;0.27;100.00;96731.16;6184063;28;20200;-56
2024/01/07 03:35:27;;;;;;;5.30;3.93;;;;;;;0.35;100.00;96724.94;6183169;28;20207;-55
2024/01/07 03:38:30;;;;;;;5.40;4.23;;;;;;;0.37;100.00;96723.72;6186555;28;20202;-57
2024/01/07 03:41:33;;;;;;;6.07;4.00;;;;;;;0.37;100.00;96713.25;6184682;28;20197;-55
2024/01/07 03:44:36;;;;;;;6.00;4.23;;;;;;;0.37;100.00;96728.97;6173794;28;20318;-55
2024/01/07 03:47:38;;;;;;;6.50;4.90;;;;;;;0.30;100.00;96724.75;6180779;28;20589;-56
2024/01/07 03:50:42;;;;;;;6.07;4.50;;;;;;;0.31;100.00;96718.50;6179923;28;20197;-56
2024/01/07 03:53:44;;;;;;;5.83;4.47;;;;;;;0.23;100.00;96722.91;6182321;28;20771;-55
2024/01/07 03:56:47;;;;;;;6.23;4.40;;;;;;;0.20;100.00;96730.38;6183138;28;20245;-56
2024/01/07 03:59:50;;;;;;;6.00;4.80;;;;;;;0.27;100.00;96731.16;6181398;28;20937;-55
2024/01/07 04:02:52;;;;;;;6.00;4.13;;;;;;;0.19;100.00;96726.09;6176723;28;20208;-55
2024/01/07 04:05:54;;;;;;;5.83;4.50;;;;;;;0.16;100.00;96740.44;6177964;28;20194;-56
2024/01/07 04:08:57;;;;;;;5.77;4.70;;;;;;;0.23;100.00;96730.75;6175018;28;20205;-56
2024/01/07 04:12:00;;;;;;;5.13;4.00;;;;;;;0.07;100.00;96727.72;6179853;28;20202;-55
2024/01/07 04:15:03;;;;;;;6.53;4.87;;;;;;;0.12;100.00;96741.81;6178072;28;20233;-56
2024/01/07 04:18:06;;;;;;;5.93;4.17;;;;;;;0.11;100.00;96740.22;6161057;28;20197;-55
2024/01/07 04:21:11;;;;;;;6.63;4.57;;;;;;;0.07;100.00;96749.47;6179018;28;20205;-54
2024/01/07 04:24:15;;;;;;;5.60;4.40;;;;;;;0.12;100.00;96749.69;6177760;28;20190;-56
2024/01/07 04:27:18;;;;;;;5.17;4.03;;;;;;;0.07;100.00;96767.78;6178016;28;20191;-55
2024/01/07 04:30:21;;;;;;;6.97;4.67;;;;;;;0.05;100.00;96761.13;6172188;28;20198;-56
2024/01/07 04:33:23;;;;;;;5.87;4.53;;;;;;;0.06;100.00;96765.38;6183039;28;20296;-56
2024/01/07 04:36:25;;;;;;;5.63;4.53;;;;;;;0.03;100.00;96777.03;6177869;28;20224;-57
2024/01/07 04:39:28;;;;;;;5.70;4.03;;;;;;;0.01;100.00;96770.41;6178949;28;20595;-56
2024/01/07 04:42:30;;;;;;;6.03;4.07;;;;;;;-0.02;100.00;96771.59;6176634;28;20184;-55
2024/01/07 04:45:33;;;;;;;6.20;5.03;;;;;;;-0.06;100.00;96778.22;6177952;28;20732;-56
2024/01/07 04:48:35;;;;;;;6.93;4.80;;;;;;;-0.01;100.00;96774.00;6171988;28;20206;-56
2024/01/07 04:51:37;;;;;;;6.17;4.47;;;;;;;0.10;100.00;96766.56;6178020;28;20568;-54
2024/01/07 04:54:40;;;;;;;7.30;4.63;;;;;;;-0.03;100.00;96770.00;6172963;28;20229;-54
2024/01/07 04:57:42;;;;;;;6.83;5.30;;;;;;;-0.03;100.00;96772.59;6180040;28;20216;-54
2024/01/07 05:00:44;;;;;;;6.13;4.77;;;;;;;-0.05;100.00;96778.03;6174549;28;20213;-54
2024/01/07 05:03:47;;;;;;;6.00;4.70;;;;;;;-0.12;100.00;96782.44;6170003;28;20248;-56
2024/01/07 05:06:50;;;;;;;6.67;5.03;;;;;;;-0.19;100.00;96778.19;6183146;28;20280;-55
2024/01/07 05:09:52;;;;;;;7.20;5.30;;;;;;;-0.22;100.00;96774.16;6182746;28;20204;-54
2024/01/07 05:12:55;;;;;;;6.17;4.67;;;;;;;-0.11;100.00;96801.56;6182660;28;20197;-56
2024/01/07 05:15:58;;;;;;;7.33;5.10;;;;;;;-0.17;100.00;96804.97;6180090;28;20202;-55
2024/01/07 05:19:00;;;;;;;5.90;4.70;;;;;;;-0.22;100.00;96810.78;6176589;28;20252;-56
2024/01/07 05:22:03;;;;;;;7.53;5.30;;;;;;;-0.27;100.00;96800.91;6177031;28;20286;-55
2024/01/07 05:25:06;;;;;;;7.30;5.07;;;;;;;-0.24;100.00;96791.06;6186377;28;20259;-56
2024/01/07 05:28:08;;;;;;;6.80;5.03;;;;;;;-0.26;100.00;96802.50;6184838;28;20206;-56
2024/01/07 05:31:18;;;;;;;7.53;4.97;;;;;;;-0.32;100.00;96781.56;6190180;28;20198;-56
2024/01/07 05:34:20;;;;;;;6.40;5.20;;;;;;;-0.33;100.00;96775.53;6190647;28;20202;-53
2024/01/07 05:37:24;;;;;;;5.27;4.57;;;;;;;-0.26;100.00;96801.72;6186780;28;20208;-56
2024/01/07 05:40:26;;;;;;;8.00;5.23;;;;;;;-0.30;100.00;96805.72;6180997;28;20197;-56
2024/01/07 05:43:29;;;;;;;7.73;5.10;;;;;;;-0.36;100.00;96796.03;6180620;28;20201;-55
2024/01/07 05:46:31;;;;;;;6.07;4.93;;;;;;;-0.32;100.00;96812.97;6184545;28;20191;-58
2024/01/07 05:49:33;;;;;;;6.10;4.93;;;;;;;-0.24;100.00;96810.19;6182835;28;20217;-55
2024/01/07 05:52:36;;;;;;;6.20;5.10;;;;;;;-0.31;100.00;96804.91;6186804;28;20221;-56
2024/01/07 05:55:39;;;;;;;5.77;4.77;;;;;;;-0.27;100.00;96811.38;6181410;28;20229;-55
2024/01/07 05:58:43;;;;;;;6.97;5.47;;;;;;;-0.33;100.00;96825.25;6181370;28;20574;-55
2024/01/07 06:01:45;;;;;;;6.43;5.33;;;;;;;-0.36;100.00;96823.00;6175380;28;20331;-55
2024/01/07 06:04:47;;;;;;;7.93;5.70;;;;;;;-0.37;100.00;96820.59;6183747;28;20575;-54
2024/01/07 06:07:50;;;;;;;6.73;5.00;;;;;;;-0.41;100.00;96835.84;6186772;28;20196;-55
2024/01/07 06:10:52;;;;;;;6.47;5.37;;;;;;;-0.53;100.00;96829.56;6183921;28;20568;-55
2024/01/07 06:13:55;;;;;;;6.50;5.00;;;;;;;-0.50;100.00;96842.25;6183381;28;20198;-55
2024/01/07 06:16:57;;;;;;;6.37;4.77;;;;;;;-0.51;100.00;96843.25;6183486;28;20220;-53
2024/01/07 06:19:59;;;;;;;6.53;4.70;;;;;;;-0.52;100.00;96845.06;6178022;28;20678;-56
2024/01/07 06:23:02;;;;;;;7.10;4.93;;;;;;;-0.50;100.00;96844.03;6183950;28;20201;-55
2024/01/07 06:26:05;;;;;;;7.90;5.30;;;;;;;-0.54;100.00;96849.69;6181709;28;20674;-54
2024/01/07 06:29:09;;;;;;;6.80;4.70;;;;;;;-0.55;100.00;96857.69;6178919;28;20201;-54
2024/01/07 06:32:13;;;;;;;7.07;4.57;;;;;;;-0.61;100.00;96858.47;6180713;28;20248;-54
2024/01/07 06:35:15;;;;;;;6.97;4.47;;;;;;;-0.63;100.00;96861.28;6180417;28;20214;-54
2024/01/07 06:38:18;;;;;;;6.97;5.03;;;;;;;-0.62;100.00;96857.66;6178365;28;20198;-55
2024/01/07 06:41:20;;;;;;;5.40;4.37;;;;;;;-0.82;100.00;96841.84;6181599;28;20189;-54
2024/01/07 06:44:22;;;;;;;6.90;4.70;;;;;;;-0.70;100.00;96864.84;6179608;28;20474;-55
2024/01/07 06:47:24;;;;;;;5.80;4.70;;;;;;;-0.71;100.00;96866.66;6175701;28;20784;-54
2024/01/07 06:50:26;;;;;;;6.87;4.40;;;;;;;-0.81;100.00;96858.34;6176703;28;20223;-55
2024/01/07 06:53:28;;;;;;;6.03;4.53;;;;;;;-0.70;100.00;96875.31;6177267;28;20193;-54
2024/01/07 06:56:30;;;;;;;5.97;4.63;;;;;;;-0.71;100.00;96873.69;6175730;28;20237;-55
2024/01/07 06:59:33;;;;;;;5.63;3.90;;;;;;;-0.68;100.00;96878.56;6179128;28;20210;-56
2024/01/07 07:02:35;;;;;;;5.73;4.40;;;;;;;-0.74;100.00;96871.44;6176358;28;20202;-55
2024/01/07 07:05:37;;;;;;;6.57;4.30;;;;;;;-0.71;100.00;96886.78;6172371;28;20579;-55
2024/01/07 07:08:39;;;;;;;4.63;3.57;;;;;;;-0.73;100.00;96884.34;6173515;28;20801;-56
2024/01/07 07:11:42;;;;;;;5.07;4.27;;;;;;;-0.67;100.00;96895.84;6173699;28;20205;-54
2024/01/07 07:14:45;;;;;;;5.17;4.23;;;;;;;-0.66;100.00;96893.03;6176944;28;20205;-55
2024/01/07 07:17:47;;;;;;;5.27;4.00;;;;;;;-0.76;100.00;96899.59;6162568;28;20280;-56
2024/01/07 07:20:49;;;;;;;6.03;4.20;;;;;;;-0.80;100.00;96917.47;6179539;28;20658;-56
2024/01/07 07:23:51;;;;;;;6.83;4.40;;;;;;;-0.81;100.00;96902.78;6181989;28;20201;-56
2024/01/07 07:26:54;;;;;;;5.57;4.10;;;;;;;-0.77;100.00;96918.91;6184566;28;20584;-56
2024/01/07 07:29:56;;;;;;;5.60;4.50;;;;;;;-0.71;100.00;96903.28;6182079;28;20193;-56
2024/01/07 07:32:58;;;;;;;5.67;4.70;;;;;;;-0.75;100.00;96916.91;6188817;28;20224;-56
2024/01/07 07:36:01;;;;;;;6.67;4.53;;;;;;;-0.85;100.00;96923.25;6171082;28;20582;-55
2024/01/07 07:39:03;;;;;;;6.73;4.50;;;;;;;-0.89;100.00;96935.09;6174685;28;20252;-56
2024/01/07 07:42:05;;;;;;;4.80;4.30;;;;;;;-0.95;100.00;96935.84;6180999;28;20190;-56
2024/01/07 07:45:08;;;;;;;7.53;4.93;;;;;;;-1.07;100.00;96925.09;6179469;28;20193;-57
2024/01/07 07:48:10;;;;;;;5.80;4.20;;;;;;;-1.20;100.00;96903.25;6179078;28;20232;-53
2024/01/07 07:51:13;;;;;;;6.43;4.63;;;;;;;-1.01;100.00;96943.63;6179618;28;20194;-54
2024/01/07 07:54:15;;;;;;;5.37;4.20;;;;;;;-0.97;100.00;96944.88;6135848;28;1278796;-55
2024/01/07 07:57:20;;;;;;;7.90;4.60;;;;;;;-0.95;100.00;96948.91;6176954;28;20190;-56
2024/01/07 08:00:23;;;;;;;7.90;5.07;;;;;;;-0.80;100.00;96947.03;6174298;28;20680;-55
2024/01/07 08:03:25;;;;;;;5.73;4.63;;;;;;;-0.91;100.00;96946.75;6176084;28;20198;-56
2024/01/07 08:06:27;;;;;;;7.17;5.17;;;;;;;-0.95;100.00;96954.16;6179591;28;20186;-55
2024/01/07 08:09:30;;;;;;;6.33;5.17;;;;;;;-0.95;100.00;96954.16;6181145;28;20197;-55
2024/01/07 08:12:32;;;;;;;8.70;5.87;;;;;;;-0.95;100.00;96959.38;6181079;28;20247;-56
2024/01/07 08:15:37;;;;;;;8.43;5.67;;;;;;;-0.85;100.00;96962.47;6177426;28;20357;-55
2024/01/07 08:18:40;;;;;;;6.90;4.63;;;;;;;-0.97;100.00;96974.44;6181594;28;20206;-55
2024/01/07 08:21:43;;;;;;;6.70;4.87;;;;;;;-1.02;100.00;96968.97;6175858;28;20197;-53
2024/01/07 08:24:47;;;;;;;11.67;5.83;;;;;;;-1.04;100.00;96970.94;6178250;28;20190;-55
2024/01/07 08:27:50;;;;;;;9.03;6.03;;;;;;;-1.07;100.00;96979.19;6177621;28;20337;-54
2024/01/07 08:30:54;;;;;;;8.47;5.70;;;;;;;-1.11;100.00;96983.16;6179145;28;20200;-55
2024/01/07 08:33:56;;;;;;;7.67;5.97;;;;;;;-1.35;100.00;96940.69;6176309;28;20201;-55
2024/01/07 08:36:59;;;;;;;8.17;5.80;;;;;;;-1.11;100.00;96977.91;6179374;28;20241;-53
2024/01/07 08:40:01;;;;;;;9.30;5.67;;;;;;;-0.97;100.00;96981.50;6182010;28;20566;-56
2024/01/07 08:43:04;;;;;;;7.93;6.03;;;;;;;-0.99;100.00;96992.09;6175023;28;20452;-54
2024/01/07 08:46:06;;;;;;;9.67;4.97;;;;;;;-1.05;100.00;97003.31;6173147;28;20202;-55
2024/01/07 08:49:10;;;;;;;7.43;5.27;;;;;;;-1.10;100.00;97016.13;6173241;28;20272;-55
2024/01/07 08:52:12;;;;;;;6.97;4.87;;;;;;;-1.17;100.00;97018.69;6159253;28;20197;-57
2024/01/07 08:55:15;;;;;;;7.50;4.70;;;;;;;-1.32;100.00;97008.25;6175220;28;20320;-55
2024/01/07 08:58:18;;;;;;;7.37;5.23;;;;;;;-1.25;100.00;97020.56;6181135;28;20709;-55
2024/01/07 09:01:20;;;;;;;7.63;5.13;;;;;;;-1.20;100.00;97021.63;6183050;28;20213;-53
2024/01/07 09:04:23;;;;;;;7.30;5.30;;;;;;;-1.31;100.00;97017.69;6179187;28;20269;-55
2024/01/07 09:07:25;;;;;;;8.17;5.93;;;;;;;-1.27;100.00;97031.22;6181901;28;20206;-53
2024/01/07 09:10:27;;;;;;;9.27;5.70;;;;;;;-1.29;100.00;97035.81;6174819;28;20198;-55
2024/01/07 09:13:30;;;;;;;7.40;4.90;;;;;;;-1.28;100.00;97029.59;6176463;28;21065;-55
2024/01/07 09:16:32;;;;;;;6.97;5.60;;;;;;;-1.11;100.00;97032.81;6175875;28;20293;-55
2024/01/07 09:19:34;;;;;;;7.00;5.13;;;;;;;-1.34;100.00;97020.66;6181576;28;20704;-53
2024/01/07 09:22:37;;;;;;;7.13;5.87;;;;;;;-1.19;100.00;97032.91;6181978;28;20561;-56
2024/01/07 09:25:39;;;;;;;8.50;5.03;;;;;;;-1.12;100.00;97023.34;6188053;28;20272;-56
2024/01/07 09:28:42;;;;;;;8.00;4.87;;;;;;;-1.14;100.00;97026.13;6190888;28;20205;-53
2024/01/07 09:31:44;;;;;;;7.23;4.63;;;;;;;-1.14;100.00;97027.94;6189280;28;20202;-56
2024/01/07 09:34:47;;;;;;;8.03;4.90;;;;;;;-0.98;100.00;97035.56;6178079;28;20194;-52
2024/01/07 09:37:49;;;;;;;7.77;5.30;;;;;;;-1.06;100.00;97033.06;6180523;28;20272;-55
2024/01/07 09:40:53;;;;;;;5.50;4.40;;;;;;;-1.20;100.00;97026.88;6184672;28;20548;-57
2024/01/07 09:43:57;;;;;;;6.20;4.80;;;;;;;-1.28;100.00;97023.53;6186382;28;20272;-55
2024/01/07 09:46:59;;;;;;;8.07;4.90;;;;;;;-1.06;100.00;97048.75;6187777;28;20666;-56
2024/01/07 09:50:02;;;;;;;7.80;5.33;;;;;;;-1.15;100.00;97055.88;6190982;28;20283;-56
2024/01/07 09:53:06;;;;;;;7.53;5.00;;;;;;;-1.20;100.00;97055.63;6188062;28;20471;-57
2024/01/07 09:56:19;;;;;;;7.40;4.93;;;;;;;-1.22;100.00;97043.75;6181848;28;20572;-54
2024/01/07 09:59:23;;;;;;;7.30;4.97;;;;;;;-1.14;100.00;97038.38;6183300;28;20256;-54
2024/01/07 10:02:26;;;;;;;6.83;4.67;;;;;;;-1.19;100.00;97033.72;6181366;28;20190;-52
2024/01/07 10:05:29;;;;;;;7.40;4.53;;;;;;;-1.25;100.00;97031.84;6181986;28;20671;-53
2024/01/07 10:08:32;;;;;;;7.23;5.07;;;;;;;-1.14;100.00;97033.97;6186120;28;20198;-53
2024/01/07 10:11:35;;;;;;;6.73;4.70;;;;;;;-1.16;100.00;97033.34;6184080;28;20698;-53
2024/01/07 10:14:39;;;;;;;6.67;5.30;;;;;;;-1.24;100.00;97028.22;6184038;28;20324;-53
2024/01/07 10:17:45;;;;;;;7.03;4.87;;;;;;;-1.24;100.00;97046.50;6184910;28;20292;-53
2024/01/07 10:20:48;;;;;;;6.57;5.10;;;;;;;-1.24;100.00;97041.28;6177081;28;20194;-54
2024/01/07 10:23:50;;;;;;;6.77;4.33;;;;;;;-1.22;100.00;97052.38;6180088;28;20197;-53
2024/01/07 10:26:52;;;;;;;7.53;4.87;;;;;;;-1.18;100.00;97050.19;6182649;28;20189;-52
2024/01/07 10:29:58;;;;;;;5.37;4.17;;;;;;;-1.30;100.00;97035.00;6183593;28;20211;-52
2024/01/07 10:33:01;;;;;;;6.93;4.90;;;;;;;-1.27;100.00;97040.88;6183244;28;20561;-54
2024/01/07 10:36:06;;;;;;;5.43;4.20;;;;;;;-1.22;100.00;97047.16;6182315;28;20205;-53
2024/01/07 10:39:08;;;;;;;7.30;4.80;;;;;;;-1.16;100.00;97058.69;6186441;28;20193;-54
2024/01/07 10:42:12;;;;;;;6.67;4.40;;;;;;;-1.19;100.00;97051.19;6177805;28;20201;-54
2024/01/07 10:45:15;;;;;;;6.47;5.30;;;;;;;-1.20;100.00;97055.63;6181369;28;20205;-53
2024/01/07 10:48:19;;;;;;;7.23;5.00;;;;;;;-1.25;100.00;97051.94;6179790;28;20229;-52
2024/01/07 10:51:22;;;;;;;6.70;4.90;;;;;;;-1.33;100.00;97051.06;6181112;28;20690;-54
2024/01/07 10:54:29;;;;;;;7.83;5.00;;;;;;;-1.30;100.00;97060.31;6180257;28;21240;-52
2024/01/07 10:57:44;;;;;;;6.93;4.90;;;;;;;-1.34;100.00;97044.19;6181838;28;20214;-55
2024/01/07 11:00:48;;;;;;;7.43;5.10;;;;;;;-1.19;100.00;97048.59;6181099;28;20198;-52
2024/01/07 11:04:12;;;;;;;6.40;4.63;;;;;;;-1.20;100.00;97046.97;6181506;28;20801;-51
2024/01/07 11:07:37;;;;;;;8.17;5.57;;;;;;;-1.36;100.00;97048.78;6143304;28;20909;-50
2024/01/07 11:10:48;;;;;;;8.07;5.03;;;;;;;-1.45;100.00;97023.75;6180188;28;20195;-52
2024/01/07 11:13:54;;;;;;;7.23;4.77;;;;;;;-1.34;100.00;97051.22;6184835;28;20245;-53
2024/01/07 11:17:02;;;;;;;8.00;4.60;;;;;;;-1.47;100.00;97046.66;6179739;28;20289;-52
2024/01/07 11:20:06;;;;;;;8.10;5.00;;;;;;;-1.41;100.00;97045.09;6158100;28;20206;-52
2024/01/07 11:23:30;;;;;;;6.93;4.77;;;;;;;-1.44;100.00;97045.47;6175793;28;20665;-48
2024/01/07 11:26:32;;;;;;;5.63;4.00;;;;;;;-1.42;100.00;97051.34;6162008;28;20205;-50
2024/01/07 11:29:35;;;;;;;6.10;4.70;;;;;;;-1.50;100.00;97041.78;6173066;28;20210;-52
2024/01/07 11:32:39;;;;;;;7.50;5.07;;;;;;;-1.54;100.00;97055.38;6178643;28;20713;-52
2024/01/07 11:35:56;;;;;;;7.70;5.00;;;;;;;-1.52;100.00;97051.59;6180280;28;20213;-51
2024/01/07 11:38:59;;;;;;;8.43;5.50;;;;;;;-1.48;100.00;97044.19;6181985;28;20194;-51
2024/01/07 11:42:03;;;;;;;6.90;5.00;;;;;;;-1.58;100.00;97049.69;6181760;28;20232;-52
2024/01/07 11:45:07;;;;;;;9.20;5.20;;;;;;;-1.53;100.00;97049.16;6173392;28;20243;-52
2024/01/07 11:48:09;;;;;;;7.17;5.07;;;;;;;-1.52;100.00;97041.16;6179409;28;20193;-53
2024/01/07 11:51:11;;;;;;;8.30;5.40;;;;;;;-1.54;100.00;97044.94;6181087;28;20216;-50
2024/01/07 11:54:13;;;;;;;7.53;5.03;;;;;;;-1.54;100.00;97042.31;6175078;28;20189;-53
2024/01/07 11:57:16;;;;;;;8.20;6.45;;;;;;;-1.51;100.00;97015.84;6178891;28;20450;-51
2024/01/07 12:00:18;;;;;;;7.50;5.20;;;;;;;-1.42;100.00;97049.53;6181054;28;20228;-54
2024/01/07 12:03:20;;;;;;;7.30;4.77;;;;;;;-1.43;100.00;97042.69;6182454;28;20197;-50
2024/01/07 12:06:22;;;;;;;8.10;4.90;;;;;;;-1.48;100.00;97045.00;6183979;28;20190;-54
2024/01/07 12:09:25;;;;;;;6.37;5.10;;;;;;;-1.48;100.00;97046.81;6184503;28;20201;-52
2024/01/07 12:12:28;;;;;;;8.27;5.33;;;;;;;-1.47;100.00;97046.66;6186846;28;20223;-52
2024/01/07 12:15:30;;;;;;;8.17;5.23;;;;;;;-1.53;100.00;97049.97;6176774;28;20309;-50
2024/01/07 12:18:32;;;;;;;7.73;5.50;;;;;;;-1.56;100.00;97047.72;6175087;28;20197;-52
2024/01/07 12:21:35;;;;;;;8.33;5.90;;;;;;;-1.38;100.00;97049.94;6178969;28;20193;-49
2024/01/07 12:24:37;;;;;;;7.73;5.20;;;;;;;-1.59;100.00;97017.56;6180056;28;20275;-49
2024/01/07 12:27:41;;;;;;;10.43;5.90;;;;;;;-1.52;100.00;97045.56;6163207;28;20194;-49
2024/01/07 12:30:43;;;;;;;7.70;5.37;;;;;;;-1.56;100.00;97056.38;6183022;28;20569;-54
2024/01/07 12:33:47;;;;;;;6.57;4.93;;;;;;;-1.61;100.00;97056.09;6179276;28;20198;-52
2024/01/07 12:36:54;;;;;;;7.03;5.20;;;;;;;-1.56;100.00;97045.94;6156475;28;20280;-54
2024/01/07 12:39:57;;;;;;;10.10;6.50;;;;;;;-1.54;100.00;97060.59;6174048;28;20277;-53
2024/01/07 12:43:00;;;;;;;8.13;5.57;;;;;;;-1.57;100.00;97056.56;6175819;28;20236;-52
2024/01/07 12:46:04;;;;;;;8.10;5.67;;;;;;;-1.58;100.00;97058.38;6178454;28;20259;-52
2024/01/07 12:49:07;;;;;;;10.57;6.13;;;;;;;-1.62;100.00;97071.97;6178461;28;20220;-51
2024/01/07 12:52:10;;;;;;;8.90;5.73;;;;;;;-1.66;100.00;97070.69;6178720;28;20666;-52
2024/01/07 12:55:12;;;;;;;10.40;6.70;;;;;;;-1.68;100.00;97057.78;6179547;28;20267;-51
2024/01/07 12:58:16;;;;;;;8.70;6.30;;;;;;;-1.62;100.00;97071.97;6175964;28;20206;-51
2024/01/07 13:01:18;;;;;;;9.20;6.03;;;;;;;-1.59;100.00;97075.00;6176863;28;21065;-53
2024/01/07 13:04:21;;;;;;;10.83;6.93;;;;;;;-1.68;100.00;97070.03;6175218;28;20240;-53
2024/01/07 13:07:23;;;;;;;8.40;6.27;;;;;;;-1.58;100.00;97068.81;6179971;28;20196;-53
2024/01/07 13:10:27;;;;;;;11.13;6.27;;;;;;;-1.59;100.00;97092.47;6183062;28;20209;-51
2024/01/07 13:13:29;;;;;;;8.60;6.40;;;;;;;-1.65;100.00;97086.19;6177052;28;20209;-52
2024/01/07 13:16:31;;;;;;;9.97;6.47;;;;;;;-1.73;100.00;97088.84;6176523;28;20741;-54
2024/01/07 13:19:34;;;;;;;10.70;6.70;;;;;;;-1.80;100.00;97087.97;6157191;28;20806;-53
2024/01/07 13:22:36;;;;;;;10.10;7.10;;;;;;;-1.77;100.00;97082.41;6176334;28;20568;-50
2024/01/07 13:25:38;;;;;;;10.23;6.90;;;;;;;-1.79;100.00;97081.75;6170800;28;20229;-51
2024/01/07 13:28:41;;;;;;;10.40;7.30;;;;;;;-1.83;100.00;97065.63;6172065;28;20880;-52
2024/01/07 13:31:43;;;;;;;10.67;6.53;;;;;;;-1.79;100.00;97089.56;6155113;28;20272;-53
2024/01/07 13:34:45;;;;;;;10.37;6.87;;;;;;;-1.79;100.00;97101.81;6171133;28;20284;-52
2024/01/07 13:37:48;;;;;;;8.23;6.67;;;;;;;-1.78;100.00;97109.47;6173000;28;20289;-49
2024/01/07 13:40:51;;;;;;;9.77;6.63;;;;;;;-1.90;100.00;97103.88;6174615;28;20259;-52
2024/01/07 13:43:55;;;;;;;9.83;7.33;;;;;;;-1.72;100.00;97108.78;6186865;28;20196;-51
2024/01/07 13:46:57;;;;;;;10.77;6.93;;;;;;;-1.72;100.00;97129.66;6186116;28;20313;-50
2024/01/07 13:49:59;;;;;;;10.67;7.40;;;;;;;-1.78;100.00;97117.31;6185035;28;20209;-52
2024/01/07 13:53:02;;;;;;;11.13;7.20;;;;;;;-1.85;100.00;97119.81;6183575;28;20198;-51
2024/01/07 13:56:06;;;;;;;11.20;7.23;;;;;;;-1.87;100.00;97127.03;6181798;28;20237;-49
2024/01/07 13:59:09;;;;;;;10.83;7.33;;;;;;;-1.90;100.00;97116.94;6183829;28;20191;-51
2024/01/07 14:02:14;;;;;;;10.87;7.00;;;;;;;-1.85;100.00;97130.25;6184798;28;20614;-51
2024/01/07 14:05:21;;;;;;;8.87;7.13;;;;;;;-1.80;100.00;97121.09;6185935;28;20190;-52
2024/01/07 14:08:24;;;;;;;8.63;6.57;;;;;;;-1.96;100.00;97112.44;6188482;28;20297;-52
2024/01/07 14:11:27;;;;;;;9.57;6.50;;;;;;;-1.88;100.00;97127.19;6178072;28;20213;-50
2024/01/07 14:14:30;;;;;;;9.73;6.93;;;;;;;-1.75;100.00;97124.78;6181858;28;20194;-52